sensor_id;sensor_type;location;lat;lon;timestamp;P1;durP1;ratioP1;P2;durP2;ratioP2
23338;SDS011;11841;49.368;20.962;2023-07-13T00:02:07;14.18;;;8.05;;
23338;SDS011;11841;49.368;20.962;2023-07-13T00:04:53;13.80;;;8.35;;
23338;SDS011;11841;49.368;20.962;2023-07-13T00:07:39;17.58;;;10.30;;
23338;SDS011;11841;49.368;20.962;2023-07-13T00:10:24;19.65;;;8.88;;
23338;SDS011;11841;49.368;20.962;2023-07-13T00:13:11;16.98;;;9.88;;
23338;SDS011;11841;49.368;20.962;2023-07-13T00:15:57;21.00;;;10.10;;
23338;SDS011;11841;49.368;20.962;2023-07-13T00:18:43;18.25;;;7.35;;
23338;SDS011;11841;49.368;20.962;2023-07-13T00:21:28;12.07;;;7.38;;
23338;SDS011;11841;49.368;20.962;2023-07-13T00:24:15;12.10;;;7.80;;
23338;SDS011;11841;49.368;20.962;2023-07-13T00:27:07;12.95;;;7.45;;
23338;SDS011;11841;49.368;20.962;2023-07-13T00:29:54;10.60;;;7.07;;
23338;SDS011;11841;49.368;20.962;2023-07-13T00:32:39;16.77;;;8.10;;
23338;SDS011;11841;49.368;20.962;2023-07-13T00:35:25;18.77;;;7.38;;
23338;SDS011;11841;49.368;20.962;2023-07-13T00:38:10;17.23;;;8.25;;
23338;SDS011;11841;49.368;20.962;2023-07-13T00:40:56;17.27;;;8.73;;
23338;SDS011;11841;49.368;20.962;2023-07-13T00:43:41;11.50;;;7.82;;
23338;SDS011;11841;49.368;20.962;2023-07-13T00:46:28;10.10;;;7.97;;
23338;SDS011;11841;49.368;20.962;2023-07-13T00:49:16;16.35;;;8.55;;
23338;SDS011;11841;49.368;20.962;2023-07-13T00:52:06;17.60;;;7.80;;
23338;SDS011;11841;49.368;20.962;2023-07-13T00:54:53;15.23;;;8.38;;
23338;SDS011;11841;49.368;20.962;2023-07-13T00:57:39;15.02;;;9.63;;
23338;SDS011;11841;49.368;20.962;2023-07-13T01:00:26;15.68;;;9.10;;
23338;SDS011;11841;49.368;20.962;2023-07-13T01:03:14;16.67;;;9.10;;
23338;SDS011;11841;49.368;20.962;2023-07-13T01:06:00;19.08;;;9.20;;
23338;SDS011;11841;49.368;20.962;2023-07-13T01:08:46;21.15;;;10.32;;
23338;SDS011;11841;49.368;20.962;2023-07-13T01:11:31;17.38;;;10.10;;
23338;SDS011;11841;49.368;20.962;2023-07-13T01:14:17;15.98;;;9.45;;
23338;SDS011;11841;49.368;20.962;2023-07-13T01:17:02;15.65;;;10.05;;
23338;SDS011;11841;49.368;20.962;2023-07-13T01:19:48;15.50;;;10.38;;
23338;SDS011;11841;49.368;20.962;2023-07-13T01:22:34;20.08;;;11.55;;
23338;SDS011;11841;49.368;20.962;2023-07-13T01:25:19;17.55;;;10.27;;
23338;SDS011;11841;49.368;20.962;2023-07-13T01:28:06;15.68;;;9.75;;
23338;SDS011;11841;49.368;20.962;2023-07-13T01:30:54;15.13;;;9.77;;
23338;SDS011;11841;49.368;20.962;2023-07-13T01:33:41;18.08;;;10.63;;
23338;SDS011;11841;49.368;20.962;2023-07-13T01:36:27;20.98;;;11.63;;
23338;SDS011;11841;49.368;20.962;2023-07-13T01:39:12;19.25;;;11.88;;
23338;SDS011;11841;49.368;20.962;2023-07-13T01:41:57;15.00;;;10.45;;
23338;SDS011;11841;49.368;20.962;2023-07-13T01:44:43;16.33;;;10.60;;
23338;SDS011;11841;49.368;20.962;2023-07-13T01:47:28;14.80;;;9.75;;
23338;SDS011;11841;49.368;20.962;2023-07-13T01:50:15;15.50;;;11.05;;
23338;SDS011;11841;49.368;20.962;2023-07-13T01:53:01;18.80;;;11.15;;
23338;SDS011;11841;49.368;20.962;2023-07-13T01:55:47;15.98;;;10.02;;
23338;SDS011;11841;49.368;20.962;2023-07-13T01:58:32;18.83;;;10.93;;
23338;SDS011;11841;49.368;20.962;2023-07-13T02:01:18;18.83;;;11.15;;
23338;SDS011;11841;49.368;20.962;2023-07-13T02:04:03;22.48;;;10.43;;
23338;SDS011;11841;49.368;20.962;2023-07-13T02:06:48;15.77;;;10.88;;
23338;SDS011;11841;49.368;20.962;2023-07-13T02:09:34;19.65;;;10.73;;
23338;SDS011;11841;49.368;20.962;2023-07-13T02:12:19;16.30;;;9.85;;
23338;SDS011;11841;49.368;20.962;2023-07-13T02:15:05;19.02;;;10.57;;
23338;SDS011;11841;49.368;20.962;2023-07-13T02:17:50;15.02;;;10.30;;
23338;SDS011;11841;49.368;20.962;2023-07-13T02:20:36;14.57;;;10.60;;
23338;SDS011;11841;49.368;20.962;2023-07-13T02:23:21;15.98;;;9.70;;
23338;SDS011;11841;49.368;20.962;2023-07-13T02:26:07;13.40;;;9.85;;
23338;SDS011;11841;49.368;20.962;2023-07-13T02:28:53;17.80;;;10.43;;
23338;SDS011;11841;49.368;20.962;2023-07-13T02:31:38;14.65;;;9.43;;
23338;SDS011;11841;49.368;20.962;2023-07-13T02:34:23;13.68;;;9.18;;
23338;SDS011;11841;49.368;20.962;2023-07-13T02:37:09;12.27;;;9.20;;
23338;SDS011;11841;49.368;20.962;2023-07-13T02:39:54;19.35;;;10.00;;
23338;SDS011;11841;49.368;20.962;2023-07-13T02:42:40;13.52;;;9.52;;
23338;SDS011;11841;49.368;20.962;2023-07-13T02:45:26;19.35;;;9.80;;
23338;SDS011;11841;49.368;20.962;2023-07-13T02:48:13;15.63;;;9.77;;
23338;SDS011;11841;49.368;20.962;2023-07-13T02:50:59;14.40;;;10.13;;
23338;SDS011;11841;49.368;20.962;2023-07-13T02:53:44;13.57;;;9.38;;
23338;SDS011;11841;49.368;20.962;2023-07-13T02:56:30;14.35;;;9.85;;
23338;SDS011;11841;49.368;20.962;2023-07-13T02:59:16;13.10;;;9.25;;
23338;SDS011;11841;49.368;20.962;2023-07-13T03:02:02;11.40;;;8.63;;
23338;SDS011;11841;49.368;20.962;2023-07-13T03:04:48;11.52;;;7.97;;
23338;SDS011;11841;49.368;20.962;2023-07-13T03:07:33;12.50;;;8.18;;
23338;SDS011;11841;49.368;20.962;2023-07-13T03:10:18;11.48;;;8.35;;
23338;SDS011;11841;49.368;20.962;2023-07-13T03:13:03;10.25;;;8.27;;
23338;SDS011;11841;49.368;20.962;2023-07-13T03:15:49;12.40;;;9.32;;
23338;SDS011;11841;49.368;20.962;2023-07-13T03:18:34;12.95;;;9.02;;
23338;SDS011;11841;49.368;20.962;2023-07-13T03:24:25;15.02;;;8.65;;
23338;SDS011;11841;49.368;20.962;2023-07-13T03:27:11;17.15;;;9.68;;
23338;SDS011;11841;49.368;20.962;2023-07-13T03:29:56;15.43;;;9.27;;
23338;SDS011;11841;49.368;20.962;2023-07-13T03:32:42;12.32;;;9.38;;
23338;SDS011;11841;49.368;20.962;2023-07-13T03:35:27;17.67;;;10.05;;
23338;SDS011;11841;49.368;20.962;2023-07-13T03:38:13;15.27;;;9.55;;
23338;SDS011;11841;49.368;20.962;2023-07-13T03:40:58;13.32;;;9.65;;
23338;SDS011;11841;49.368;20.962;2023-07-13T03:43:44;12.27;;;9.30;;
23338;SDS011;11841;49.368;20.962;2023-07-13T03:46:30;23.42;;;10.80;;
23338;SDS011;11841;49.368;20.962;2023-07-13T03:49:15;15.30;;;10.02;;
23338;SDS011;11841;49.368;20.962;2023-07-13T03:52:01;10.80;;;8.90;;
23338;SDS011;11841;49.368;20.962;2023-07-13T03:54:46;15.88;;;10.15;;
23338;SDS011;11841;49.368;20.962;2023-07-13T03:57:32;14.95;;;10.05;;
23338;SDS011;11841;49.368;20.962;2023-07-13T04:00:17;14.25;;;9.98;;
23338;SDS011;11841;49.368;20.962;2023-07-13T04:03:03;11.45;;;9.30;;
23338;SDS011;11841;49.368;20.962;2023-07-13T04:05:48;17.67;;;10.65;;
23338;SDS011;11841;49.368;20.962;2023-07-13T04:08:34;15.32;;;11.10;;
23338;SDS011;11841;49.368;20.962;2023-07-13T04:11:23;19.55;;;10.75;;
23338;SDS011;11841;49.368;20.962;2023-07-13T04:14:10;14.70;;;10.63;;
23338;SDS011;11841;49.368;20.962;2023-07-13T04:16:55;14.80;;;10.48;;
23338;SDS011;11841;49.368;20.962;2023-07-13T04:19:41;13.15;;;10.77;;
23338;SDS011;11841;49.368;20.962;2023-07-13T04:22:26;16.85;;;11.27;;
23338;SDS011;11841;49.368;20.962;2023-07-13T04:25:11;12.57;;;9.88;;
23338;SDS011;11841;49.368;20.962;2023-07-13T04:27:56;19.80;;;10.38;;
23338;SDS011;11841;49.368;20.962;2023-07-13T04:30:42;13.88;;;11.05;;
23338;SDS011;11841;49.368;20.962;2023-07-13T04:33:27;16.98;;;9.77;;
23338;SDS011;11841;49.368;20.962;2023-07-13T04:36:13;18.25;;;10.70;;
23338;SDS011;11841;49.368;20.962;2023-07-13T04:39:00;16.83;;;9.48;;
23338;SDS011;11841;49.368;20.962;2023-07-13T04:41:45;13.55;;;9.68;;
23338;SDS011;11841;49.368;20.962;2023-07-13T04:44:30;19.38;;;11.95;;
23338;SDS011;11841;49.368;20.962;2023-07-13T04:47:16;19.60;;;10.15;;
23338;SDS011;11841;49.368;20.962;2023-07-13T04:50:02;13.20;;;9.85;;
23338;SDS011;11841;49.368;20.962;2023-07-13T04:52:47;12.43;;;9.10;;
23338;SDS011;11841;49.368;20.962;2023-07-13T04:55:32;13.45;;;9.13;;
23338;SDS011;11841;49.368;20.962;2023-07-13T04:58:18;13.95;;;9.88;;
23338;SDS011;11841;49.368;20.962;2023-07-13T05:01:04;13.80;;;9.55;;
23338;SDS011;11841;49.368;20.962;2023-07-13T05:03:51;15.52;;;9.20;;
23338;SDS011;11841;49.368;20.962;2023-07-13T05:06:37;15.55;;;11.18;;
23338;SDS011;11841;49.368;20.962;2023-07-13T05:09:22;14.43;;;9.73;;
23338;SDS011;11841;49.368;20.962;2023-07-13T05:12:08;11.50;;;8.40;;
23338;SDS011;11841;49.368;20.962;2023-07-13T05:14:55;13.50;;;7.97;;
23338;SDS011;11841;49.368;20.962;2023-07-13T05:17:40;13.60;;;8.35;;
23338;SDS011;11841;49.368;20.962;2023-07-13T05:20:26;9.27;;;7.85;;
23338;SDS011;11841;49.368;20.962;2023-07-13T05:23:11;16.40;;;8.13;;
23338;SDS011;11841;49.368;20.962;2023-07-13T05:25:56;11.38;;;8.13;;
23338;SDS011;11841;49.368;20.962;2023-07-13T05:28:42;10.40;;;7.97;;
23338;SDS011;11841;49.368;20.962;2023-07-13T05:31:27;11.90;;;7.65;;
23338;SDS011;11841;49.368;20.962;2023-07-13T05:34:13;15.00;;;8.27;;
23338;SDS011;11841;49.368;20.962;2023-07-13T05:36:58;13.93;;;10.13;;
23338;SDS011;11841;49.368;20.962;2023-07-13T05:39:43;15.00;;;10.32;;
23338;SDS011;11841;49.368;20.962;2023-07-13T05:42:29;15.30;;;10.57;;
23338;SDS011;11841;49.368;20.962;2023-07-13T05:45:16;21.15;;;10.77;;
23338;SDS011;11841;49.368;20.962;2023-07-13T05:48:01;17.10;;;9.57;;
23338;SDS011;11841;49.368;20.962;2023-07-13T05:50:47;16.98;;;10.27;;
23338;SDS011;11841;49.368;20.962;2023-07-13T05:53:33;15.75;;;9.30;;
23338;SDS011;11841;49.368;20.962;2023-07-13T05:56:19;14.48;;;10.05;;
23338;SDS011;11841;49.368;20.962;2023-07-13T05:59:05;12.30;;;9.35;;
23338;SDS011;11841;49.368;20.962;2023-07-13T06:01:50;11.57;;;9.10;;
23338;SDS011;11841;49.368;20.962;2023-07-13T06:04:37;12.63;;;8.65;;
23338;SDS011;11841;49.368;20.962;2023-07-13T06:07:23;14.10;;;9.48;;
23338;SDS011;11841;49.368;20.962;2023-07-13T06:10:08;12.10;;;9.90;;
23338;SDS011;11841;49.368;20.962;2023-07-13T06:12:54;13.82;;;9.80;;
23338;SDS011;11841;49.368;20.962;2023-07-13T06:15:40;12.75;;;9.15;;
23338;SDS011;11841;49.368;20.962;2023-07-13T06:18:25;7.75;;;6.30;;
23338;SDS011;11841;49.368;20.962;2023-07-13T06:21:12;7.53;;;6.00;;
23338;SDS011;11841;49.368;20.962;2023-07-13T06:24:02;6.95;;;5.40;;
23338;SDS011;11841;49.368;20.962;2023-07-13T06:26:48;6.65;;;5.47;;
23338;SDS011;11841;49.368;20.962;2023-07-13T06:29:33;8.25;;;4.80;;
23338;SDS011;11841;49.368;20.962;2023-07-13T06:32:18;8.60;;;5.53;;
23338;SDS011;11841;49.368;20.962;2023-07-13T06:35:04;7.50;;;5.10;;
23338;SDS011;11841;49.368;20.962;2023-07-13T06:37:50;6.85;;;5.20;;
23338;SDS011;11841;49.368;20.962;2023-07-13T06:40:35;7.63;;;5.10;;
23338;SDS011;11841;49.368;20.962;2023-07-13T06:43:21;6.32;;;5.13;;
23338;SDS011;11841;49.368;20.962;2023-07-13T06:46:06;8.10;;;4.80;;
23338;SDS011;11841;49.368;20.962;2023-07-13T06:48:52;8.10;;;5.28;;
23338;SDS011;11841;49.368;20.962;2023-07-13T06:51:37;8.20;;;4.90;;
23338;SDS011;11841;49.368;20.962;2023-07-13T06:54:22;7.22;;;5.75;;
23338;SDS011;11841;49.368;20.962;2023-07-13T06:57:08;7.45;;;5.70;;
23338;SDS011;11841;49.368;20.962;2023-07-13T06:59:53;7.85;;;5.47;;
23338;SDS011;11841;49.368;20.962;2023-07-13T07:02:38;10.07;;;6.70;;
23338;SDS011;11841;49.368;20.962;2023-07-13T07:05:24;10.68;;;6.47;;
23338;SDS011;11841;49.368;20.962;2023-07-13T07:08:09;10.10;;;6.90;;
23338;SDS011;11841;49.368;20.962;2023-07-13T07:10:54;8.82;;;7.25;;
23338;SDS011;11841;49.368;20.962;2023-07-13T07:13:40;13.60;;;7.05;;
23338;SDS011;11841;49.368;20.962;2023-07-13T07:16:25;11.00;;;7.45;;
23338;SDS011;11841;49.368;20.962;2023-07-13T07:19:11;11.80;;;7.13;;
23338;SDS011;11841;49.368;20.962;2023-07-13T07:21:56;10.85;;;8.23;;
23338;SDS011;11841;49.368;20.962;2023-07-13T07:24:41;11.63;;;7.68;;
23338;SDS011;11841;49.368;20.962;2023-07-13T07:27:27;9.00;;;7.68;;
23338;SDS011;11841;49.368;20.962;2023-07-13T07:30:15;11.27;;;7.55;;
23338;SDS011;11841;49.368;20.962;2023-07-13T07:33:03;7.78;;;6.45;;
23338;SDS011;11841;49.368;20.962;2023-07-13T07:35:50;9.82;;;7.05;;
23338;SDS011;11841;49.368;20.962;2023-07-13T07:38:39;9.27;;;7.20;;
23338;SDS011;11841;49.368;20.962;2023-07-13T07:41:24;19.10;;;8.70;;
23338;SDS011;11841;49.368;20.962;2023-07-13T07:44:12;8.10;;;6.82;;
23338;SDS011;11841;49.368;20.962;2023-07-13T07:46:58;12.07;;;7.57;;
23338;SDS011;11841;49.368;20.962;2023-07-13T07:49:43;11.13;;;8.15;;
23338;SDS011;11841;49.368;20.962;2023-07-13T07:52:29;12.45;;;8.63;;
23338;SDS011;11841;49.368;20.962;2023-07-13T07:55:14;11.98;;;8.88;;
23338;SDS011;11841;49.368;20.962;2023-07-13T07:58:03;13.10;;;9.25;;
23338;SDS011;11841;49.368;20.962;2023-07-13T08:01:10;17.70;;;11.20;;
23338;SDS011;11841;49.368;20.962;2023-07-13T08:03:58;16.38;;;11.15;;
23338;SDS011;11841;49.368;20.962;2023-07-13T08:06:46;13.00;;;9.25;;
23338;SDS011;11841;49.368;20.962;2023-07-13T08:09:32;14.05;;;10.27;;
23338;SDS011;11841;49.368;20.962;2023-07-13T08:12:17;17.20;;;11.32;;
23338;SDS011;11841;49.368;20.962;2023-07-13T08:15:23;18.52;;;11.65;;
23338;SDS011;11841;49.368;20.962;2023-07-13T08:18:08;17.15;;;11.23;;
23338;SDS011;11841;49.368;20.962;2023-07-13T08:20:54;15.93;;;11.60;;
23338;SDS011;11841;49.368;20.962;2023-07-13T08:23:43;20.20;;;11.90;;
23338;SDS011;11841;49.368;20.962;2023-07-13T08:26:28;19.05;;;11.38;;
23338;SDS011;11841;49.368;20.962;2023-07-13T08:29:14;18.75;;;13.23;;
23338;SDS011;11841;49.368;20.962;2023-07-13T08:31:59;19.95;;;12.35;;
23338;SDS011;11841;49.368;20.962;2023-07-13T08:34:45;23.45;;;13.07;;
23338;SDS011;11841;49.368;20.962;2023-07-13T08:37:30;25.77;;;13.30;;
23338;SDS011;11841;49.368;20.962;2023-07-13T08:40:16;20.65;;;12.60;;
23338;SDS011;11841;49.368;20.962;2023-07-13T08:43:07;23.45;;;13.50;;
23338;SDS011;11841;49.368;20.962;2023-07-13T08:46:01;21.10;;;13.73;;
23338;SDS011;11841;49.368;20.962;2023-07-13T08:48:55;21.42;;;13.10;;
23338;SDS011;11841;49.368;20.962;2023-07-13T08:54:44;22.98;;;13.80;;
23338;SDS011;11841;49.368;20.962;2023-07-13T08:57:34;21.95;;;13.20;;
23338;SDS011;11841;49.368;20.962;2023-07-13T09:00:20;23.80;;;14.73;;
23338;SDS011;11841;49.368;20.962;2023-07-13T09:03:23;22.70;;;12.95;;
23338;SDS011;11841;49.368;20.962;2023-07-13T09:06:11;26.38;;;13.85;;
23338;SDS011;11841;49.368;20.962;2023-07-13T09:09:00;24.60;;;14.65;;
23338;SDS011;11841;49.368;20.962;2023-07-13T09:11:56;22.73;;;13.68;;
23338;SDS011;11841;49.368;20.962;2023-07-13T09:14:56;21.83;;;12.70;;
23338;SDS011;11841;49.368;20.962;2023-07-13T09:17:51;27.80;;;14.53;;
23338;SDS011;11841;49.368;20.962;2023-07-13T09:20:41;25.63;;;15.23;;
23338;SDS011;11841;49.368;20.962;2023-07-13T09:23:32;24.75;;;13.98;;
23338;SDS011;11841;49.368;20.962;2023-07-13T09:26:20;22.33;;;14.02;;
23338;SDS011;11841;49.368;20.962;2023-07-13T09:29:13;21.43;;;14.03;;
23338;SDS011;11841;49.368;20.962;2023-07-13T09:32:06;20.50;;;13.45;;
23338;SDS011;11841;49.368;20.962;2023-07-13T09:34:56;21.23;;;13.80;;
23338;SDS011;11841;49.368;20.962;2023-07-13T09:37:42;21.95;;;13.82;;
23338;SDS011;11841;49.368;20.962;2023-07-13T09:40:56;22.37;;;13.60;;
23338;SDS011;11841;49.368;20.962;2023-07-13T09:44:07;18.98;;;12.25;;
23338;SDS011;11841;49.368;20.962;2023-07-13T09:46:57;22.63;;;13.75;;
23338;SDS011;11841;49.368;20.962;2023-07-13T09:49:43;22.67;;;13.88;;
23338;SDS011;11841;49.368;20.962;2023-07-13T09:55:32;21.23;;;12.80;;
23338;SDS011;11841;49.368;20.962;2023-07-13T09:58:21;17.67;;;12.45;;
23338;SDS011;11841;49.368;20.962;2023-07-13T10:01:09;24.02;;;14.82;;
23338;SDS011;11841;49.368;20.962;2023-07-13T10:03:54;24.38;;;15.15;;
23338;SDS011;11841;49.368;20.962;2023-07-13T10:06:40;21.63;;;14.43;;
23338;SDS011;11841;49.368;20.962;2023-07-13T10:09:28;19.85;;;14.30;;
23338;SDS011;11841;49.368;20.962;2023-07-13T10:12:14;22.35;;;14.43;;
23338;SDS011;11841;49.368;20.962;2023-07-13T10:15:00;24.83;;;14.65;;
23338;SDS011;11841;49.368;20.962;2023-07-13T10:18:07;19.67;;;14.00;;
23338;SDS011;11841;49.368;20.962;2023-07-13T10:21:04;20.90;;;13.82;;
23338;SDS011;11841;49.368;20.962;2023-07-13T10:24:23;20.45;;;13.82;;
23338;SDS011;11841;49.368;20.962;2023-07-13T10:33:10;24.33;;;14.68;;
23338;SDS011;11841;49.368;20.962;2023-07-13T10:36:05;22.20;;;13.88;;
23338;SDS011;11841;49.368;20.962;2023-07-13T10:39:06;22.10;;;13.88;;
23338;SDS011;11841;49.368;20.962;2023-07-13T10:42:11;21.67;;;14.57;;
23338;SDS011;11841;49.368;20.962;2023-07-13T10:45:24;23.35;;;14.27;;
23338;SDS011;11841;49.368;20.962;2023-07-13T10:48:11;21.70;;;13.95;;
23338;SDS011;11841;49.368;20.962;2023-07-13T10:51:00;18.80;;;13.18;;
23338;SDS011;11841;49.368;20.962;2023-07-13T10:54:10;24.23;;;14.55;;
23338;SDS011;11841;49.368;20.962;2023-07-13T10:57:14;23.73;;;14.82;;
23338;SDS011;11841;49.368;20.962;2023-07-13T11:02:56;23.80;;;15.02;;
23338;SDS011;11841;49.368;20.962;2023-07-13T11:05:47;23.17;;;16.00;;
23338;SDS011;11841;49.368;20.962;2023-07-13T11:08:38;28.10;;;16.40;;
23338;SDS011;11841;49.368;20.962;2023-07-13T11:11:37;24.83;;;14.57;;
23338;SDS011;11841;49.368;20.962;2023-07-13T11:23:09;25.08;;;16.27;;
23338;SDS011;11841;49.368;20.962;2023-07-13T11:26:03;21.33;;;14.90;;
23338;SDS011;11841;49.368;20.962;2023-07-13T11:28:49;20.67;;;13.13;;
23338;SDS011;11841;49.368;20.962;2023-07-13T11:31:35;21.00;;;13.20;;
23338;SDS011;11841;49.368;20.962;2023-07-13T11:34:23;23.33;;;14.20;;
23338;SDS011;11841;49.368;20.962;2023-07-13T11:37:18;17.17;;;11.90;;
23338;SDS011;11841;49.368;20.962;2023-07-13T11:40:05;16.83;;;10.55;;
23338;SDS011;11841;49.368;20.962;2023-07-13T11:43:00;17.33;;;11.73;;
23338;SDS011;11841;49.368;20.962;2023-07-13T11:45:46;18.52;;;11.70;;
23338;SDS011;11841;49.368;20.962;2023-07-13T11:48:33;17.50;;;11.45;;
23338;SDS011;11841;49.368;20.962;2023-07-13T12:00:14;18.45;;;11.50;;
23338;SDS011;11841;49.368;20.962;2023-07-13T12:03:06;18.58;;;12.75;;
23338;SDS011;11841;49.368;20.962;2023-07-13T12:06:01;30.65;;;13.88;;
23338;SDS011;11841;49.368;20.962;2023-07-13T12:08:51;16.23;;;10.88;;
23338;SDS011;11841;49.368;20.962;2023-07-13T12:11:37;12.63;;;8.40;;
23338;SDS011;11841;49.368;20.962;2023-07-13T12:14:25;12.27;;;8.65;;
23338;SDS011;11841;49.368;20.962;2023-07-13T12:17:21;15.25;;;7.53;;
23338;SDS011;11841;49.368;20.962;2023-07-13T12:20:29;8.60;;;6.97;;
23338;SDS011;11841;49.368;20.962;2023-07-13T12:23:29;12.90;;;7.07;;
23338;SDS011;11841;49.368;20.962;2023-07-13T12:26:17;9.77;;;7.05;;
23338;SDS011;11841;49.368;20.962;2023-07-13T12:29:05;9.30;;;6.97;;
23338;SDS011;11841;49.368;20.962;2023-07-13T12:31:51;11.13;;;6.88;;
23338;SDS011;11841;49.368;20.962;2023-07-13T12:34:49;9.00;;;6.25;;
23338;SDS011;11841;49.368;20.962;2023-07-13T12:37:44;8.30;;;6.18;;
23338;SDS011;11841;49.368;20.962;2023-07-13T12:40:34;11.02;;;6.20;;
23338;SDS011;11841;49.368;20.962;2023-07-13T12:43:21;10.45;;;5.97;;
23338;SDS011;11841;49.368;20.962;2023-07-13T12:49:04;4.28;;;3.63;;
23338;SDS011;11841;49.368;20.962;2023-07-13T12:52:04;3.70;;;3.05;;
23338;SDS011;11841;49.368;20.962;2023-07-13T12:55:03;6.10;;;3.40;;
23338;SDS011;11841;49.368;20.962;2023-07-13T12:57:59;5.85;;;2.92;;
23338;SDS011;11841;49.368;20.962;2023-07-13T13:00:49;7.43;;;2.72;;
23338;SDS011;11841;49.368;20.962;2023-07-13T13:06:25;2.33;;;1.98;;
23338;SDS011;11841;49.368;20.962;2023-07-13T13:09:13;5.30;;;2.83;;
23338;SDS011;11841;49.368;20.962;2023-07-13T13:12:01;8.50;;;3.42;;
23338;SDS011;11841;49.368;20.962;2023-07-13T13:14:46;3.95;;;2.50;;
23338;SDS011;11841;49.368;20.962;2023-07-13T13:17:33;6.28;;;3.88;;
23338;SDS011;11841;49.368;20.962;2023-07-13T13:20:20;5.60;;;2.15;;
23338;SDS011;11841;49.368;20.962;2023-07-13T13:23:10;7.65;;;2.60;;
23338;SDS011;11841;49.368;20.962;2023-07-13T13:26:02;2.67;;;1.98;;
23338;SDS011;11841;49.368;20.962;2023-07-13T13:28:50;3.70;;;2.72;;
23338;SDS011;11841;49.368;20.962;2023-07-13T13:31:35;6.85;;;2.05;;
23338;SDS011;11841;49.368;20.962;2023-07-13T13:34:21;6.32;;;2.25;;
23338;SDS011;11841;49.368;20.962;2023-07-13T13:37:20;4.40;;;2.50;;
23338;SDS011;11841;49.368;20.962;2023-07-13T13:40:18;4.93;;;2.40;;
23338;SDS011;11841;49.368;20.962;2023-07-13T13:43:09;4.68;;;2.92;;
23338;SDS011;11841;49.368;20.962;2023-07-13T13:46:00;4.35;;;2.50;;
23338;SDS011;11841;49.368;20.962;2023-07-13T13:48:46;5.82;;;2.42;;
23338;SDS011;11841;49.368;20.962;2023-07-13T13:51:31;4.10;;;2.63;;
23338;SDS011;11841;49.368;20.962;2023-07-13T13:54:17;5.38;;;2.63;;
23338;SDS011;11841;49.368;20.962;2023-07-13T13:57:04;3.70;;;2.92;;
23338;SDS011;11841;49.368;20.962;2023-07-13T13:59:53;3.65;;;2.35;;
23338;SDS011;11841;49.368;20.962;2023-07-13T14:02:38;4.35;;;2.28;;
23338;SDS011;11841;49.368;20.962;2023-07-13T14:05:24;20.98;;;2.28;;
23338;SDS011;11841;49.368;20.962;2023-07-13T14:08:15;3.85;;;2.45;;
23338;SDS011;11841;49.368;20.962;2023-07-13T14:11:02;3.40;;;2.67;;
23338;SDS011;11841;49.368;20.962;2023-07-13T14:13:48;3.47;;;2.38;;
23338;SDS011;11841;49.368;20.962;2023-07-13T14:16:35;2.80;;;2.28;;
23338;SDS011;11841;49.368;20.962;2023-07-13T14:19:21;7.00;;;2.00;;
23338;SDS011;11841;49.368;20.962;2023-07-13T14:22:07;4.55;;;1.75;;
23338;SDS011;11841;49.368;20.962;2023-07-13T14:24:55;4.25;;;1.45;;
23338;SDS011;11841;49.368;20.962;2023-07-13T14:27:43;1.77;;;1.20;;
23338;SDS011;11841;49.368;20.962;2023-07-13T14:30:29;2.45;;;1.25;;
23338;SDS011;11841;49.368;20.962;2023-07-13T14:33:14;4.55;;;2.95;;
23338;SDS011;11841;49.368;20.962;2023-07-13T14:35:59;2.75;;;2.00;;
23338;SDS011;11841;49.368;20.962;2023-07-13T14:38:45;3.45;;;2.05;;
23338;SDS011;11841;49.368;20.962;2023-07-13T14:41:30;9.10;;;1.60;;
23338;SDS011;11841;49.368;20.962;2023-07-13T14:44:17;1.70;;;1.38;;
23338;SDS011;11841;49.368;20.962;2023-07-13T14:47:08;1.83;;;1.20;;
23338;SDS011;11841;49.368;20.962;2023-07-13T14:49:54;2.95;;;1.90;;
23338;SDS011;11841;49.368;20.962;2023-07-13T14:52:39;1.75;;;1.58;;
23338;SDS011;11841;49.368;20.962;2023-07-13T14:55:24;1.75;;;1.50;;
23338;SDS011;11841;49.368;20.962;2023-07-13T14:58:11;2.50;;;1.92;;
23338;SDS011;11841;49.368;20.962;2023-07-13T15:00:58;2.10;;;1.40;;
23338;SDS011;11841;49.368;20.962;2023-07-13T15:03:45;2.63;;;1.50;;
23338;SDS011;11841;49.368;20.962;2023-07-13T15:06:52;3.05;;;1.70;;
23338;SDS011;11841;49.368;20.962;2023-07-13T15:09:38;1.70;;;1.17;;
23338;SDS011;11841;49.368;20.962;2023-07-13T15:12:24;3.30;;;1.30;;
23338;SDS011;11841;49.368;20.962;2023-07-13T15:15:09;1.60;;;1.50;;
23338;SDS011;11841;49.368;20.962;2023-07-13T15:17:54;3.42;;;1.85;;
23338;SDS011;11841;49.368;20.962;2023-07-13T15:20:47;3.35;;;1.50;;
23338;SDS011;11841;49.368;20.962;2023-07-13T15:23:34;2.08;;;1.30;;
23338;SDS011;11841;49.368;20.962;2023-07-13T15:26:19;2.53;;;1.48;;
23338;SDS011;11841;49.368;20.962;2023-07-13T15:29:05;4.13;;;1.50;;
23338;SDS011;11841;49.368;20.962;2023-07-13T15:31:51;3.92;;;1.60;;
23338;SDS011;11841;49.368;20.962;2023-07-13T15:34:36;2.08;;;1.67;;
23338;SDS011;11841;49.368;20.962;2023-07-13T15:37:21;1.67;;;1.30;;
23338;SDS011;11841;49.368;20.962;2023-07-13T15:40:07;1.30;;;1.20;;
23338;SDS011;11841;49.368;20.962;2023-07-13T15:42:53;3.55;;;1.52;;
23338;SDS011;11841;49.368;20.962;2023-07-13T15:45:38;1.85;;;1.63;;
23338;SDS011;11841;49.368;20.962;2023-07-13T15:48:25;1.88;;;1.67;;
23338;SDS011;11841;49.368;20.962;2023-07-13T15:51:15;1.70;;;1.30;;
23338;SDS011;11841;49.368;20.962;2023-07-13T15:54:08;2.10;;;1.65;;
23338;SDS011;11841;49.368;20.962;2023-07-13T15:56:56;1.48;;;1.38;;
23338;SDS011;11841;49.368;20.962;2023-07-13T15:59:46;2.28;;;1.73;;
23338;SDS011;11841;49.368;20.962;2023-07-13T16:02:31;2.28;;;1.60;;
23338;SDS011;11841;49.368;20.962;2023-07-13T16:05:17;1.80;;;1.60;;
23338;SDS011;11841;49.368;20.962;2023-07-13T16:08:05;4.32;;;1.60;;
23338;SDS011;11841;49.368;20.962;2023-07-13T16:10:51;1.37;;;1.27;;
23338;SDS011;11841;49.368;20.962;2023-07-13T16:13:37;4.57;;;1.90;;
23338;SDS011;11841;49.368;20.962;2023-07-13T16:16:32;1.00;;;0.90;;
23338;SDS011;11841;49.368;20.962;2023-07-13T16:19:18;3.25;;;1.77;;
23338;SDS011;11841;49.368;20.962;2023-07-13T16:22:08;5.22;;;1.60;;
23338;SDS011;11841;49.368;20.962;2023-07-13T16:24:59;2.25;;;1.77;;
23338;SDS011;11841;49.368;20.962;2023-07-13T16:27:46;5.55;;;1.95;;
23338;SDS011;11841;49.368;20.962;2023-07-13T16:30:32;4.38;;;2.42;;
23338;SDS011;11841;49.368;20.962;2023-07-13T16:33:18;2.30;;;1.60;;
23338;SDS011;11841;49.368;20.962;2023-07-13T16:36:04;1.92;;;1.70;;
23338;SDS011;11841;49.368;20.962;2023-07-13T16:38:56;1.80;;;1.58;;
23338;SDS011;11841;49.368;20.962;2023-07-13T16:41:42;6.50;;;2.15;;
23338;SDS011;11841;49.368;20.962;2023-07-13T16:44:29;2.55;;;1.83;;
23338;SDS011;11841;49.368;20.962;2023-07-13T16:47:16;4.68;;;2.10;;
23338;SDS011;11841;49.368;20.962;2023-07-13T16:50:02;2.08;;;1.40;;
23338;SDS011;11841;49.368;20.962;2023-07-13T16:52:49;3.55;;;2.40;;
23338;SDS011;11841;49.368;20.962;2023-07-13T16:55:36;2.85;;;1.98;;
23338;SDS011;11841;49.368;20.962;2023-07-13T16:58:22;3.67;;;2.38;;
23338;SDS011;11841;49.368;20.962;2023-07-13T17:01:13;4.80;;;2.13;;
23338;SDS011;11841;49.368;20.962;2023-07-13T17:03:58;4.32;;;2.05;;